Palm Springs, CA

5:34 PM PST on December 13, 2019 (GMT -0800)
N Palm Springs | | Change Station
Active Advisory: Wind Advisory

Elev 531 ft 33.85 °N, 116.54 °W | Updated 19 minutes ago

Clear
Clear
65.3 °F
Feels Like 65.3 °F
N
0.7
Wind Variable Wind from West
Gusts 1.8 mph

Today
High -- | Low -- °F
--% Chance of Precip.
Yesterday
High -- | Low -- °F
Precip. -- in
Pressure 30.01 in
Visibility 10.0 miles
Clouds Clear
Dew Point 46 °F
Humidity 52%
Rainfall 0.00 in
Snow Depth Not available.
6:42 AM 4:38 PM
Waning Gibbous, 96% visible
METAR KPSP 140053Z 10004KT 10SM CLR 20/06 A3001 RMK AO2 SLP161 T02000056
Pressure 30.01 in
Visibility 10.0 miles
Clouds Clear
Dew Point 46 °F
Humidity 52%
Rainfall 0.00 in
Snow Depth Not available.
6:42 AM 4:38 PM
Waning Gibbous, 96% visible
METAR KPSP 140053Z 10004KT 10SM CLR 20/06 A3001 RMK AO2 SLP161 T02000056

Get Your Daily Forecast Email!

Thanks for signing up!

Be on the lookout for a verification email in your inbox.

You'll start receiving severe weather alerts in your inbox..

×

10-Day Weather Forecast

Almanac

Astronomy

Dec. 13, 2019 Rise Set
Actual Time
Civil Twilight
Nautical Twilight
Astronomical Twilight
Moon
Length of Visible Light
Length of Day
Tomorrow will be .
, % of the Moon is Illuminated

Today's Extremes

State Highs State Lows

Community

WunderPhotos

Category 6

Welcome to Category 6. This is the collective home for Weather Underground's featured writeups by Dr. Jeff Masters (right), Bob Henson (left), Chris Burt, and other regular contributors.

Nearby

Air Quality

  Air Quality AQ Index Pollutant
Not available.

Snow Depth

Station Depth Elevation

Earthquake Activity

City Distance Mag. Time & Date
Minimum magnitude displayed is 2.5.

Coastal Water Temperatures

Place Temperature

Stations

Nearby Weather Stations

Station Location Temp. Windchill Dew Point Humidity Wind Precip. Elev Updated Type
                   

Watches & Warnings

Wind Advisory
Issued: 1:35 PM PST Dec. 13, 2019 – National Weather Service

... Wind Advisory in effect from 1 PM Saturday to 10 am PST
Sunday...

* what... west winds 15 to 25 mph with gusts up to 45 mph
expected. Gusts up to 65 mph possible immediately through the
mountain passes and along the desert-facing slopes.

* Where... San Bernardino County mountains, Riverside County
mountains, San Diego County mountains, apple and Lucerne
valleys, Coachella Valley, San Diego County deserts and San
Gorgonio Pass near Banning.

* When... from 1 PM Saturday to 10 am PST Sunday.

* Impacts... gusty winds could blow around unsecured objects.
Tree limbs could be blown down and a few power outages may
result.

* Additional details... the strongest winds should be expected
Saturday evening.

Precautionary/preparedness actions...

Use extra caution when driving, especially if operating a high
profile vehicle. Secure outdoor objects.